Phoenix, Arizona
Traffic Map
Current Weather Conditions
Phoenix, Arizona
Clear
Clear
53°
Feels Like: 53°
Wind Chill: 53° Ceiling: Unl
Heat Index: 53° Visibility: 10mi
Dew Point: 25° Wind: 0mph
Humidity: 34% Direction: ° ()
Pressure: 30.12in Gusts: 0mph
Raw Report DataKPHX 230551Z 00000KT 10SM CLR 12/M04 A3012 RMK AO2 SLP195 T01171039 10161 20111 51005
Traffic Incident Summary
Active as of:
Severity:
Category:
InformationThere was an issue retrieving the traffic information for this location. Please try a different location or try again shortly.
Advertisements